Islip Terrace, NY (11752)

4:00 PM EDT on April 26, 2015 (GMT -0400)
Islip | | Change Station
CLOSE
Current Station
Personal Weather Station
Location: Islip, NY
Elevation: 26 ft
Nearby Weather Stations

Elev 26 ft 40.74 °N, 73.20 °W | Updated 2 seconds ago

Overcast
Overcast
55.8 °F
Feels Like 55.8 °F
N
8.0
Wind Variable Wind from South
Gusts 0.0 mph

Today
High -- | Low -- °F
--% Chance of Precip.
Yesterday
High -- | Low -- °F
Precip. -- in
5:58 AM 7:43 PM
First Quarter, 58% visible
Pressure 29.65 in
Visibility 10.0 miles
Clouds Mostly Cloudy 7000 ft
Dew Point 39 °F
Humidity 54%
Rainfall 0.00 in
Snow Depth Not available.
UV 4 out of 12
Pollen 10.10 out of 12
Air Quality Not available.
Flu Activity Widespread
METAR KISP 261856Z 33009G16KT 10SM BKN070 14/M02 A2965 RMK AO2 SLP039 T01441022

More Conditions Fewer Conditions

Pressure 29.65 in
Visibility 10.0 miles
Clouds Mostly Cloudy 7000 ft
Dew Point 39 °F
Humidity 54%
Rainfall 0.00 in
Snow Depth Not available.
UV 4 out of 12
Pollen 10.10 out of 12
Air Quality Not available.
Flu Activity Widespread
METAR KISP 261856Z 33009G16KT 10SM BKN070 14/M02 A2965 RMK AO2 SLP039 T01441022

More Conditions Fewer Conditions

The full scope of the disaster following a powerful 7.8-magnitude earthquake in Nepal may not come into view for days, but global charities are already sending emergency aid. Click to see how you can help.

10-Day Weather Forecast

Almanac

Astronomy

Apr. 26, 2015 Rise Set
Actual Time
Civil Twilight
Nautical Twilight
Astronomical Twilight
Moon
Length of Visible Light
Length of Day
Tomorrow will be .
, % of the Moon is Illuminated

Today's Extremes

State Highs State Lows

Community

WunderPhotos

Upload Photos

1,817,103 photos uploaded!

WunderBlogs® & News

Nearby

Air Quality

  Air Quality AQ Index Pollutant
Not available.

Snow Depth

Station Depth Elevation

Earthquake Activity

City Distance Mag. Time & Date
Minimum magnitude displayed is 2.5.

Coastal Water Temperatures

Place Temperature

Stations

Nearby Weather Stations

Station Location Temp. Windchill Dew Point Humidity Wind Precip. Elev Updated Type